Earlton, New York
Current Conditions -  °F | °C
As of 7:51 AM on Saturday 25 Oct 2014 (Local Time) from KALB Reporting Station
Light Fog Light Fog  
Wind Chill: 40°   Ceiling: Unl
Heat Index: 40°   Visibility: 10mi
Dew Point: 37°   Wind: 0mph
Humidity: 89%   Direction: NA
Pressure: 29.84"   Gusts: NA
Location:  42.36°N, 73.9°W
Report Text: KALB 251151Z 00000KT 10SM BCFG SCT021 SCT230 04/03 A2984 RMK AO2 SLP106 BCFG E-S AND NW 70013 T00440028 10083 20039 53002 $
Loading
Personal Weather Stations






























Interactive Weather Map
Tropical Storm Tracking
New forecast layout! Learn more

10-Day Weather Forecast

Advertisements
Track Severe Weather on mobile